sensor_id;sensor_type;location;lat;lon;timestamp;pressure;altitude;pressure_sealevel;temperature
44429;BMP180;30134;47.866;-4.222;2023-05-19T00:00:33;102382.00;;;25.30
44429;BMP180;30134;47.866;-4.222;2023-05-19T00:03:02;102381.00;;;25.30
44429;BMP180;30134;47.866;-4.222;2023-05-19T00:05:30;102384.00;;;25.30
44429;BMP180;30134;47.866;-4.222;2023-05-19T00:07:58;102378.00;;;25.30
44429;BMP180;30134;47.866;-4.222;2023-05-19T00:10:28;102387.00;;;25.30
44429;BMP180;30134;47.866;-4.222;2023-05-19T00:12:57;102390.00;;;25.30
44429;BMP180;30134;47.866;-4.222;2023-05-19T00:15:23;102386.00;;;25.30
44429;BMP180;30134;47.866;-4.222;2023-05-19T00:17:50;102386.00;;;25.30
44429;BMP180;30134;47.866;-4.222;2023-05-19T00:20:17;102376.00;;;25.30
44429;BMP180;30134;47.866;-4.222;2023-05-19T00:22:43;102376.00;;;25.30
44429;BMP180;30134;47.866;-4.222;2023-05-19T00:25:10;102376.00;;;25.30
44429;BMP180;30134;47.866;-4.222;2023-05-19T00:27:36;102371.00;;;25.30
44429;BMP180;30134;47.866;-4.222;2023-05-19T00:30:03;102381.00;;;25.30
44429;BMP180;30134;47.866;-4.222;2023-05-19T00:32:29;102373.00;;;25.30
44429;BMP180;30134;47.866;-4.222;2023-05-19T00:34:56;102369.00;;;25.30
44429;BMP180;30134;47.866;-4.222;2023-05-19T00:37:22;102369.00;;;25.30
44429;BMP180;30134;47.866;-4.222;2023-05-19T00:39:49;102372.00;;;25.30
44429;BMP180;30134;47.866;-4.222;2023-05-19T00:42:15;102369.00;;;25.40
44429;BMP180;30134;47.866;-4.222;2023-05-19T00:44:41;102371.00;;;25.40
44429;BMP180;30134;47.866;-4.222;2023-05-19T00:47:08;102385.00;;;25.40
44429;BMP180;30134;47.866;-4.222;2023-05-19T00:49:34;102378.00;;;25.40
44429;BMP180;30134;47.866;-4.222;2023-05-19T00:52:01;102378.00;;;25.40
44429;BMP180;30134;47.866;-4.222;2023-05-19T00:54:28;102378.00;;;25.40
44429;BMP180;30134;47.866;-4.222;2023-05-19T00:56:55;102382.00;;;25.40
44429;BMP180;30134;47.866;-4.222;2023-05-19T00:59:23;102372.00;;;25.40
44429;BMP180;30134;47.866;-4.222;2023-05-19T01:01:49;102374.00;;;25.40
44429;BMP180;30134;47.866;-4.222;2023-05-19T01:04:18;102369.00;;;25.40
44429;BMP180;30134;47.866;-4.222;2023-05-19T01:06:48;102368.00;;;25.40
44429;BMP180;30134;47.866;-4.222;2023-05-19T01:09:21;102361.00;;;25.40
44429;BMP180;30134;47.866;-4.222;2023-05-19T01:11:51;102367.00;;;25.40
44429;BMP180;30134;47.866;-4.222;2023-05-19T01:14:18;102361.00;;;25.40
44429;BMP180;30134;47.866;-4.222;2023-05-19T01:16:46;102357.00;;;25.40
44429;BMP180;30134;47.866;-4.222;2023-05-19T01:19:30;102354.00;;;25.40
44429;BMP180;30134;47.866;-4.222;2023-05-19T01:30:41;102357.00;;;25.70
44429;BMP180;30134;47.866;-4.222;2023-05-19T01:33:11;102344.00;;;25.50
44429;BMP180;30134;47.866;-4.222;2023-05-19T01:35:40;102341.00;;;25.50
44429;BMP180;30134;47.866;-4.222;2023-05-19T01:38:11;102344.00;;;25.50
44429;BMP180;30134;47.866;-4.222;2023-05-19T01:40:40;102351.00;;;25.50
44429;BMP180;30134;47.866;-4.222;2023-05-19T01:43:10;102344.00;;;25.50
44429;BMP180;30134;47.866;-4.222;2023-05-19T01:45:38;102339.00;;;25.50
44429;BMP180;30134;47.866;-4.222;2023-05-19T01:48:05;102341.00;;;25.50
44429;BMP180;30134;47.866;-4.222;2023-05-19T01:50:33;102345.00;;;25.50
44429;BMP180;30134;47.866;-4.222;2023-05-19T01:53:00;102344.00;;;25.50
44429;BMP180;30134;47.866;-4.222;2023-05-19T01:55:27;102332.00;;;25.50
44429;BMP180;30134;47.866;-4.222;2023-05-19T02:01:10;102338.00;;;25.50
44429;BMP180;30134;47.866;-4.222;2023-05-19T02:09:50;102332.00;;;25.50
44429;BMP180;30134;47.866;-4.222;2023-05-19T02:15:20;102329.00;;;25.50
44429;BMP180;30134;47.866;-4.222;2023-05-19T02:17:47;102324.00;;;25.50
44429;BMP180;30134;47.866;-4.222;2023-05-19T02:20:17;102327.00;;;25.50
44429;BMP180;30134;47.866;-4.222;2023-05-19T02:22:43;102326.00;;;25.50
44429;BMP180;30134;47.866;-4.222;2023-05-19T02:25:10;102325.00;;;25.50
44429;BMP180;30134;47.866;-4.222;2023-05-19T02:27:37;102326.00;;;25.50
44429;BMP180;30134;47.866;-4.222;2023-05-19T02:30:05;102323.00;;;25.50
44429;BMP180;30134;47.866;-4.222;2023-05-19T02:32:32;102325.00;;;25.50
44429;BMP180;30134;47.866;-4.222;2023-05-19T02:34:58;102330.00;;;25.50
44429;BMP180;30134;47.866;-4.222;2023-05-19T02:37:25;102330.00;;;25.50
44429;BMP180;30134;47.866;-4.222;2023-05-19T02:39:53;102332.00;;;25.50
44429;BMP180;30134;47.866;-4.222;2023-05-19T02:42:20;102333.00;;;25.50
44429;BMP180;30134;47.866;-4.222;2023-05-19T02:44:47;102340.00;;;25.50
44429;BMP180;30134;47.866;-4.222;2023-05-19T02:47:13;102337.00;;;25.50
44429;BMP180;30134;47.866;-4.222;2023-05-19T02:49:40;102337.00;;;25.50
44429;BMP180;30134;47.866;-4.222;2023-05-19T02:52:07;102342.00;;;25.50
44429;BMP180;30134;47.866;-4.222;2023-05-19T02:54:34;102339.00;;;25.50
44429;BMP180;30134;47.866;-4.222;2023-05-19T02:57:01;102341.00;;;25.50
44429;BMP180;30134;47.866;-4.222;2023-05-19T02:59:27;102334.00;;;25.50
44429;BMP180;30134;47.866;-4.222;2023-05-19T03:01:59;102333.00;;;25.50
44429;BMP180;30134;47.866;-4.222;2023-05-19T03:04:27;102333.00;;;25.50
44429;BMP180;30134;47.866;-4.222;2023-05-19T03:06:54;102336.00;;;25.50
44429;BMP180;30134;47.866;-4.222;2023-05-19T03:09:21;102342.00;;;25.50
44429;BMP180;30134;47.866;-4.222;2023-05-19T03:11:47;102341.00;;;25.50
44429;BMP180;30134;47.866;-4.222;2023-05-19T03:14:19;102337.00;;;25.50
44429;BMP180;30134;47.866;-4.222;2023-05-19T03:16:48;102337.00;;;25.50
44429;BMP180;30134;47.866;-4.222;2023-05-19T03:19:15;102336.00;;;25.50
44429;BMP180;30134;47.866;-4.222;2023-05-19T03:21:41;102335.00;;;25.50
44429;BMP180;30134;47.866;-4.222;2023-05-19T03:24:08;102334.00;;;25.50
44429;BMP180;30134;47.866;-4.222;2023-05-19T03:26:34;102336.00;;;25.50
44429;BMP180;30134;47.866;-4.222;2023-05-19T03:29:00;102338.00;;;25.50
44429;BMP180;30134;47.866;-4.222;2023-05-19T03:31:27;102345.00;;;25.50
44429;BMP180;30134;47.866;-4.222;2023-05-19T03:33:56;102339.00;;;25.50
44429;BMP180;30134;47.866;-4.222;2023-05-19T03:36:25;102326.00;;;25.50
44429;BMP180;30134;47.866;-4.222;2023-05-19T03:38:57;102335.00;;;25.50
44429;BMP180;30134;47.866;-4.222;2023-05-19T03:41:24;102332.00;;;25.50
44429;BMP180;30134;47.866;-4.222;2023-05-19T03:43:50;102327.00;;;25.50
44429;BMP180;30134;47.866;-4.222;2023-05-19T03:46:16;102331.00;;;25.50
44429;BMP180;30134;47.866;-4.222;2023-05-19T03:48:43;102324.00;;;25.50
44429;BMP180;30134;47.866;-4.222;2023-05-19T03:51:09;102324.00;;;25.50
44429;BMP180;30134;47.866;-4.222;2023-05-19T03:53:35;102326.00;;;25.50
44429;BMP180;30134;47.866;-4.222;2023-05-19T03:56:02;102327.00;;;25.50
44429;BMP180;30134;47.866;-4.222;2023-05-19T03:58:29;102325.00;;;25.40
44429;BMP180;30134;47.866;-4.222;2023-05-19T04:00:56;102326.00;;;25.50
44429;BMP180;30134;47.866;-4.222;2023-05-19T04:03:22;102327.00;;;25.40
44429;BMP180;30134;47.866;-4.222;2023-05-19T04:05:51;102323.00;;;25.40
44429;BMP180;30134;47.866;-4.222;2023-05-19T04:08:18;102319.00;;;25.50
44429;BMP180;30134;47.866;-4.222;2023-05-19T04:10:44;102330.00;;;25.50
44429;BMP180;30134;47.866;-4.222;2023-05-19T04:13:10;102327.00;;;25.50
44429;BMP180;30134;47.866;-4.222;2023-05-19T04:15:37;102321.00;;;25.50
44429;BMP180;30134;47.866;-4.222;2023-05-19T04:18:03;102319.00;;;25.40
44429;BMP180;30134;47.866;-4.222;2023-05-19T04:20:30;102321.00;;;25.50
44429;BMP180;30134;47.866;-4.222;2023-05-19T04:22:56;102320.00;;;25.50
44429;BMP180;30134;47.866;-4.222;2023-05-19T04:25:22;102316.00;;;25.50
44429;BMP180;30134;47.866;-4.222;2023-05-19T04:27:50;102313.00;;;25.40
44429;BMP180;30134;47.866;-4.222;2023-05-19T04:30:17;102319.00;;;25.50
44429;BMP180;30134;47.866;-4.222;2023-05-19T04:32:47;102314.00;;;25.50
44429;BMP180;30134;47.866;-4.222;2023-05-19T04:35:16;102314.00;;;25.50
44429;BMP180;30134;47.866;-4.222;2023-05-19T04:37:43;102322.00;;;25.40
44429;BMP180;30134;47.866;-4.222;2023-05-19T04:40:13;102325.00;;;25.40
44429;BMP180;30134;47.866;-4.222;2023-05-19T04:42:41;102323.00;;;25.40
44429;BMP180;30134;47.866;-4.222;2023-05-19T04:45:10;102317.00;;;25.40
44429;BMP180;30134;47.866;-4.222;2023-05-19T04:47:39;102324.00;;;25.40
44429;BMP180;30134;47.866;-4.222;2023-05-19T04:50:07;102326.00;;;25.40
44429;BMP180;30134;47.866;-4.222;2023-05-19T04:52:34;102322.00;;;25.40
44429;BMP180;30134;47.866;-4.222;2023-05-19T04:55:01;102320.00;;;25.40
44429;BMP180;30134;47.866;-4.222;2023-05-19T04:57:27;102329.00;;;25.40
44429;BMP180;30134;47.866;-4.222;2023-05-19T04:59:54;102324.00;;;25.40
44429;BMP180;30134;47.866;-4.222;2023-05-19T05:02:28;102337.00;;;25.40
44429;BMP180;30134;47.866;-4.222;2023-05-19T05:04:54;102336.00;;;25.40
44429;BMP180;30134;47.866;-4.222;2023-05-19T05:07:22;102341.00;;;25.40
44429;BMP180;30134;47.866;-4.222;2023-05-19T05:09:48;102345.00;;;25.40
44429;BMP180;30134;47.866;-4.222;2023-05-19T05:12:16;102340.00;;;25.40
44429;BMP180;30134;47.866;-4.222;2023-05-19T05:14:42;102332.00;;;25.40
44429;BMP180;30134;47.866;-4.222;2023-05-19T05:17:10;102332.00;;;25.40
44429;BMP180;30134;47.866;-4.222;2023-05-19T05:19:36;102332.00;;;25.40
44429;BMP180;30134;47.866;-4.222;2023-05-19T05:22:03;102334.00;;;25.40
44429;BMP180;30134;47.866;-4.222;2023-05-19T05:24:30;102326.00;;;25.40
44429;BMP180;30134;47.866;-4.222;2023-05-19T05:26:58;102331.00;;;25.40
44429;BMP180;30134;47.866;-4.222;2023-05-19T05:29:25;102324.00;;;25.40
44429;BMP180;30134;47.866;-4.222;2023-05-19T05:31:51;102330.00;;;25.40
44429;BMP180;30134;47.866;-4.222;2023-05-19T05:34:24;102334.00;;;25.40
44429;BMP180;30134;47.866;-4.222;2023-05-19T05:36:50;102328.00;;;25.40
44429;BMP180;30134;47.866;-4.222;2023-05-19T05:39:17;102339.00;;;25.40
44429;BMP180;30134;47.866;-4.222;2023-05-19T05:41:43;102333.00;;;25.40
44429;BMP180;30134;47.866;-4.222;2023-05-19T05:44:09;102340.00;;;25.40
44429;BMP180;30134;47.866;-4.222;2023-05-19T05:46:36;102350.00;;;25.40
44429;BMP180;30134;47.866;-4.222;2023-05-19T05:49:03;102352.00;;;25.40
44429;BMP180;30134;47.866;-4.222;2023-05-19T05:51:29;102355.00;;;25.40
44429;BMP180;30134;47.866;-4.222;2023-05-19T05:53:59;102347.00;;;25.40
44429;BMP180;30134;47.866;-4.222;2023-05-19T05:56:25;102354.00;;;25.40
44429;BMP180;30134;47.866;-4.222;2023-05-19T05:58:55;102345.00;;;25.40
44429;BMP180;30134;47.866;-4.222;2023-05-19T06:01:21;102350.00;;;25.40
44429;BMP180;30134;47.866;-4.222;2023-05-19T06:03:49;102354.00;;;25.40
44429;BMP180;30134;47.866;-4.222;2023-05-19T06:06:15;102345.00;;;25.40
44429;BMP180;30134;47.866;-4.222;2023-05-19T06:08:41;102344.00;;;25.40
44429;BMP180;30134;47.866;-4.222;2023-05-19T06:11:08;102345.00;;;25.40
44429;BMP180;30134;47.866;-4.222;2023-05-19T06:13:38;102342.00;;;25.40
44429;BMP180;30134;47.866;-4.222;2023-05-19T06:16:06;102342.00;;;25.40
44429;BMP180;30134;47.866;-4.222;2023-05-19T06:18:32;102348.00;;;25.40
44429;BMP180;30134;47.866;-4.222;2023-05-19T06:20:59;102351.00;;;25.40
44429;BMP180;30134;47.866;-4.222;2023-05-19T06:23:26;102364.00;;;25.40
44429;BMP180;30134;47.866;-4.222;2023-05-19T06:25:54;102360.00;;;25.40
44429;BMP180;30134;47.866;-4.222;2023-05-19T06:28:21;102362.00;;;25.40
44429;BMP180;30134;47.866;-4.222;2023-05-19T06:30:47;102358.00;;;25.30
44429;BMP180;30134;47.866;-4.222;2023-05-19T06:33:14;102353.00;;;25.20
44429;BMP180;30134;47.866;-4.222;2023-05-19T06:35:40;102351.00;;;25.20
44429;BMP180;30134;47.866;-4.222;2023-05-19T06:38:07;102353.00;;;25.20
44429;BMP180;30134;47.866;-4.222;2023-05-19T06:40:34;102347.00;;;25.20
44429;BMP180;30134;47.866;-4.222;2023-05-19T06:43:02;102351.00;;;25.20
44429;BMP180;30134;47.866;-4.222;2023-05-19T06:45:28;102348.00;;;25.10
44429;BMP180;30134;47.866;-4.222;2023-05-19T06:47:54;102354.00;;;25.20
44429;BMP180;30134;47.866;-4.222;2023-05-19T06:50:23;102357.00;;;25.10
44429;BMP180;30134;47.866;-4.222;2023-05-19T06:52:50;102358.00;;;25.10
44429;BMP180;30134;47.866;-4.222;2023-05-19T06:55:19;102358.00;;;25.10
44429;BMP180;30134;47.866;-4.222;2023-05-19T06:57:45;102361.00;;;25.10
44429;BMP180;30134;47.866;-4.222;2023-05-19T07:00:12;102356.00;;;25.10
44429;BMP180;30134;47.866;-4.222;2023-05-19T07:02:39;102357.00;;;25.10
44429;BMP180;30134;47.866;-4.222;2023-05-19T07:05:05;102364.00;;;25.10
44429;BMP180;30134;47.866;-4.222;2023-05-19T07:07:33;102365.00;;;25.10
44429;BMP180;30134;47.866;-4.222;2023-05-19T07:09:59;102367.00;;;25.10
44429;BMP180;30134;47.866;-4.222;2023-05-19T07:12:25;102356.00;;;25.10
44429;BMP180;30134;47.866;-4.222;2023-05-19T07:14:52;102361.00;;;25.10
44429;BMP180;30134;47.866;-4.222;2023-05-19T07:17:18;102363.00;;;25.10
44429;BMP180;30134;47.866;-4.222;2023-05-19T07:19:45;102362.00;;;25.10
44429;BMP180;30134;47.866;-4.222;2023-05-19T07:22:11;102359.00;;;25.10
44429;BMP180;30134;47.866;-4.222;2023-05-19T07:24:37;102368.00;;;25.10
44429;BMP180;30134;47.866;-4.222;2023-05-19T07:27:04;102357.00;;;25.10
44429;BMP180;30134;47.866;-4.222;2023-05-19T07:29:31;102354.00;;;25.10
44429;BMP180;30134;47.866;-4.222;2023-05-19T07:31:57;102360.00;;;25.10
44429;BMP180;30134;47.866;-4.222;2023-05-19T07:34:24;102357.00;;;25.10
44429;BMP180;30134;47.866;-4.222;2023-05-19T07:36:50;102361.00;;;25.10
44429;BMP180;30134;47.866;-4.222;2023-05-19T07:39:17;102366.00;;;25.10
44429;BMP180;30134;47.866;-4.222;2023-05-19T07:41:43;102357.00;;;25.10
44429;BMP180;30134;47.866;-4.222;2023-05-19T07:44:10;102364.00;;;25.10
44429;BMP180;30134;47.866;-4.222;2023-05-19T07:46:37;102360.00;;;25.20
44429;BMP180;30134;47.866;-4.222;2023-05-19T07:49:03;102347.00;;;25.10
44429;BMP180;30134;47.866;-4.222;2023-05-19T07:51:30;102349.00;;;25.10
44429;BMP180;30134;47.866;-4.222;2023-05-19T07:53:56;102351.00;;;25.10
44429;BMP180;30134;47.866;-4.222;2023-05-19T07:56:23;102348.00;;;24.20
44429;BMP180;30134;47.866;-4.222;2023-05-19T07:58:49;102352.00;;;23.60
44429;BMP180;30134;47.866;-4.222;2023-05-19T08:01:16;102348.00;;;23.30
44429;BMP180;30134;47.866;-4.222;2023-05-19T08:03:42;102353.00;;;23.20
44429;BMP180;30134;47.866;-4.222;2023-05-19T08:06:08;102355.00;;;23.20
44429;BMP180;30134;47.866;-4.222;2023-05-19T08:08:34;102352.00;;;23.10
44429;BMP180;30134;47.866;-4.222;2023-05-19T08:11:03;102357.00;;;23.10
44429;BMP180;30134;47.866;-4.222;2023-05-19T08:13:30;102351.00;;;23.00
44429;BMP180;30134;47.866;-4.222;2023-05-19T08:15:56;102354.00;;;23.00
44429;BMP180;30134;47.866;-4.222;2023-05-19T08:18:27;102346.00;;;23.00
44429;BMP180;30134;47.866;-4.222;2023-05-19T08:20:55;102341.00;;;23.00
44429;BMP180;30134;47.866;-4.222;2023-05-19T08:23:21;102338.00;;;22.90
44429;BMP180;30134;47.866;-4.222;2023-05-19T08:25:48;102332.00;;;22.90
44429;BMP180;30134;47.866;-4.222;2023-05-19T08:28:14;102324.00;;;22.90
44429;BMP180;30134;47.866;-4.222;2023-05-19T08:30:40;102331.00;;;22.90
44429;BMP180;30134;47.866;-4.222;2023-05-19T08:33:06;102330.00;;;22.90
44429;BMP180;30134;47.866;-4.222;2023-05-19T08:35:33;102332.00;;;23.00
44429;BMP180;30134;47.866;-4.222;2023-05-19T08:37:59;102328.00;;;22.90
44429;BMP180;30134;47.866;-4.222;2023-05-19T08:40:25;102326.00;;;22.90
44429;BMP180;30134;47.866;-4.222;2023-05-19T08:42:53;102319.00;;;22.90
44429;BMP180;30134;47.866;-4.222;2023-05-19T08:45:19;102316.00;;;22.90
44429;BMP180;30134;47.866;-4.222;2023-05-19T08:47:45;102316.00;;;22.90
44429;BMP180;30134;47.866;-4.222;2023-05-19T08:50:19;102310.00;;;22.90
44429;BMP180;30134;47.866;-4.222;2023-05-19T08:53:13;102315.00;;;22.80
44429;BMP180;30134;47.866;-4.222;2023-05-19T08:56:13;102311.00;;;22.90
44429;BMP180;30134;47.866;-4.222;2023-05-19T08:58:40;102300.00;;;22.90
44429;BMP180;30134;47.866;-4.222;2023-05-19T09:01:13;102293.00;;;22.90
44429;BMP180;30134;47.866;-4.222;2023-05-19T09:03:45;102296.00;;;22.90
44429;BMP180;30134;47.866;-4.222;2023-05-19T09:06:11;102310.00;;;22.90
44429;BMP180;30134;47.866;-4.222;2023-05-19T09:08:41;102296.00;;;22.90
44429;BMP180;30134;47.866;-4.222;2023-05-19T09:11:09;102296.00;;;22.90
44429;BMP180;30134;47.866;-4.222;2023-05-19T09:13:35;102296.00;;;22.80
44429;BMP180;30134;47.866;-4.222;2023-05-19T09:16:01;102296.00;;;22.80
44429;BMP180;30134;47.866;-4.222;2023-05-19T09:18:28;102292.00;;;22.90
44429;BMP180;30134;47.866;-4.222;2023-05-19T09:21:00;102286.00;;;22.90
44429;BMP180;30134;47.866;-4.222;2023-05-19T09:23:29;102272.00;;;22.70
44429;BMP180;30134;47.866;-4.222;2023-05-19T09:26:01;102273.00;;;22.70
44429;BMP180;30134;47.866;-4.222;2023-05-19T09:28:30;102267.00;;;22.70
44429;BMP180;30134;47.866;-4.222;2023-05-19T09:31:08;102257.00;;;22.90
44429;BMP180;30134;47.866;-4.222;2023-05-19T09:33:41;102257.00;;;22.90
44429;BMP180;30134;47.866;-4.222;2023-05-19T09:36:08;102261.00;;;22.80
44429;BMP180;30134;47.866;-4.222;2023-05-19T09:38:37;102260.00;;;22.90
44429;BMP180;30134;47.866;-4.222;2023-05-19T09:41:05;102258.00;;;22.90
44429;BMP180;30134;47.866;-4.222;2023-05-19T09:43:33;102252.00;;;22.90
44429;BMP180;30134;47.866;-4.222;2023-05-19T09:46:08;102253.00;;;22.90
44429;BMP180;30134;47.866;-4.222;2023-05-19T09:48:38;102247.00;;;22.90
44429;BMP180;30134;47.866;-4.222;2023-05-19T09:51:06;102251.00;;;22.90
44429;BMP180;30134;47.866;-4.222;2023-05-19T09:53:34;102255.00;;;22.90
44429;BMP180;30134;47.866;-4.222;2023-05-19T09:56:01;102258.00;;;22.90
44429;BMP180;30134;47.866;-4.222;2023-05-19T09:58:33;102265.00;;;22.90
44429;BMP180;30134;47.866;-4.222;2023-05-19T10:01:05;102268.00;;;22.80
44429;BMP180;30134;47.866;-4.222;2023-05-19T10:03:33;102267.00;;;22.90
44429;BMP180;30134;47.866;-4.222;2023-05-19T10:06:03;102263.00;;;22.90
44429;BMP180;30134;47.866;-4.222;2023-05-19T10:08:31;102260.00;;;22.90
44429;BMP180;30134;47.866;-4.222;2023-05-19T10:10:58;102261.00;;;22.90
44429;BMP180;30134;47.866;-4.222;2023-05-19T10:13:25;102267.00;;;22.90
44429;BMP180;30134;47.866;-4.222;2023-05-19T10:15:51;102261.00;;;22.90
44429;BMP180;30134;47.866;-4.222;2023-05-19T10:18:18;102259.00;;;22.90
44429;BMP180;30134;47.866;-4.222;2023-05-19T10:20:46;102260.00;;;22.90
44429;BMP180;30134;47.866;-4.222;2023-05-19T10:23:13;102257.00;;;22.90
44429;BMP180;30134;47.866;-4.222;2023-05-19T10:25:40;102259.00;;;23.00
44429;BMP180;30134;47.866;-4.222;2023-05-19T10:28:12;102256.00;;;22.90
44429;BMP180;30134;47.866;-4.222;2023-05-19T10:30:44;102252.00;;;22.80
44429;BMP180;30134;47.866;-4.222;2023-05-19T10:33:17;102260.00;;;22.80
44429;BMP180;30134;47.866;-4.222;2023-05-19T10:36:14;102258.00;;;22.80
44429;BMP180;30134;47.866;-4.222;2023-05-19T10:38:49;102253.00;;;22.70
44429;BMP180;30134;47.866;-4.222;2023-05-19T10:41:36;102246.00;;;22.60
44429;BMP180;30134;47.866;-4.222;2023-05-19T10:44:45;102245.00;;;22.60
44429;BMP180;30134;47.866;-4.222;2023-05-19T10:47:25;102245.00;;;22.40
44429;BMP180;30134;47.866;-4.222;2023-05-19T10:49:54;102245.00;;;22.50
44429;BMP180;30134;47.866;-4.222;2023-05-19T10:52:23;102238.00;;;22.40
44429;BMP180;30134;47.866;-4.222;2023-05-19T10:54:54;102236.00;;;22.40
44429;BMP180;30134;47.866;-4.222;2023-05-19T10:57:27;102236.00;;;22.30
44429;BMP180;30134;47.866;-4.222;2023-05-19T10:59:57;102234.00;;;22.50
44429;BMP180;30134;47.866;-4.222;2023-05-19T11:02:42;102230.00;;;22.40
44429;BMP180;30134;47.866;-4.222;2023-05-19T11:05:15;102235.00;;;22.50
44429;BMP180;30134;47.866;-4.222;2023-05-19T11:07:57;102229.00;;;22.50
44429;BMP180;30134;47.866;-4.222;2023-05-19T11:10:26;102219.00;;;22.50
44429;BMP180;30134;47.866;-4.222;2023-05-19T11:12:56;102227.00;;;22.50
44429;BMP180;30134;47.866;-4.222;2023-05-19T11:15:26;102218.00;;;22.50
44429;BMP180;30134;47.866;-4.222;2023-05-19T11:17:53;102226.00;;;22.50
44429;BMP180;30134;47.866;-4.222;2023-05-19T11:20:27;102218.00;;;22.50
44429;BMP180;30134;47.866;-4.222;2023-05-19T11:23:15;102212.00;;;22.60
44429;BMP180;30134;47.866;-4.222;2023-05-19T11:25:47;102217.00;;;22.60
44429;BMP180;30134;47.866;-4.222;2023-05-19T11:28:18;102232.00;;;22.60
44429;BMP180;30134;47.866;-4.222;2023-05-19T11:30:46;102215.00;;;22.60
44429;BMP180;30134;47.866;-4.222;2023-05-19T11:33:16;102219.00;;;22.40
44429;BMP180;30134;47.866;-4.222;2023-05-19T11:35:47;102214.00;;;22.30
44429;BMP180;30134;47.866;-4.222;2023-05-19T11:38:17;102211.00;;;22.30
44429;BMP180;30134;47.866;-4.222;2023-05-19T11:40:44;102215.00;;;22.40
44429;BMP180;30134;47.866;-4.222;2023-05-19T11:43:10;102216.00;;;22.30
44429;BMP180;30134;47.866;-4.222;2023-05-19T11:45:36;102206.00;;;22.40
44429;BMP180;30134;47.866;-4.222;2023-05-19T11:48:02;102195.00;;;22.40
44429;BMP180;30134;47.866;-4.222;2023-05-19T11:50:32;102206.00;;;22.40
44429;BMP180;30134;47.866;-4.222;2023-05-19T11:53:01;102202.00;;;22.30
44429;BMP180;30134;47.866;-4.222;2023-05-19T11:55:27;102195.00;;;22.40
44429;BMP180;30134;47.866;-4.222;2023-05-19T11:58:03;102194.00;;;22.40
44429;BMP180;30134;47.866;-4.222;2023-05-19T12:00:34;102185.00;;;22.40
44429;BMP180;30134;47.866;-4.222;2023-05-19T12:03:04;102188.00;;;22.40
44429;BMP180;30134;47.866;-4.222;2023-05-19T12:05:30;102179.00;;;22.40
44429;BMP180;30134;47.866;-4.222;2023-05-19T12:07:57;102184.00;;;22.40
44429;BMP180;30134;47.866;-4.222;2023-05-19T12:10:27;102189.00;;;22.60
44429;BMP180;30134;47.866;-4.222;2023-05-19T12:12:54;102188.00;;;22.60
44429;BMP180;30134;47.866;-4.222;2023-05-19T12:15:22;102182.00;;;22.60
44429;BMP180;30134;47.866;-4.222;2023-05-19T12:17:59;102178.00;;;22.70
44429;BMP180;30134;47.866;-4.222;2023-05-19T12:20:28;102178.00;;;22.70
44429;BMP180;30134;47.866;-4.222;2023-05-19T12:22:57;102180.00;;;22.70
44429;BMP180;30134;47.866;-4.222;2023-05-19T12:25:24;102178.00;;;22.70
44429;BMP180;30134;47.866;-4.222;2023-05-19T12:27:51;102168.00;;;22.70
44429;BMP180;30134;47.866;-4.222;2023-05-19T12:30:26;102177.00;;;22.70
44429;BMP180;30134;47.866;-4.222;2023-05-19T12:32:54;102173.00;;;22.70
44429;BMP180;30134;47.866;-4.222;2023-05-19T12:35:29;102170.00;;;22.70
44429;BMP180;30134;47.866;-4.222;2023-05-19T12:37:58;102165.00;;;22.70
44429;BMP180;30134;47.866;-4.222;2023-05-19T12:40:28;102159.00;;;22.70
44429;BMP180;30134;47.866;-4.222;2023-05-19T12:42:55;102157.00;;;22.70
44429;BMP180;30134;47.866;-4.222;2023-05-19T12:45:23;102156.00;;;22.70
44429;BMP180;30134;47.866;-4.222;2023-05-19T12:47:53;102150.00;;;22.70
44429;BMP180;30134;47.866;-4.222;2023-05-19T12:50:19;102142.00;;;22.70
44429;BMP180;30134;47.866;-4.222;2023-05-19T12:52:48;102131.00;;;22.70
44429;BMP180;30134;47.866;-4.222;2023-05-19T12:55:16;102138.00;;;22.80
44429;BMP180;30134;47.866;-4.222;2023-05-19T12:57:48;102133.00;;;22.80
44429;BMP180;30134;47.866;-4.222;2023-05-19T13:00:19;102129.00;;;22.80
44429;BMP180;30134;47.866;-4.222;2023-05-19T13:05:39;102121.00;;;22.80
44429;BMP180;30134;47.866;-4.222;2023-05-19T13:08:17;102110.00;;;22.80
44429;BMP180;30134;47.866;-4.222;2023-05-19T13:10:45;102099.00;;;22.70
44429;BMP180;30134;47.866;-4.222;2023-05-19T13:13:12;102108.00;;;22.80
44429;BMP180;30134;47.866;-4.222;2023-05-19T13:15:42;102108.00;;;22.80
44429;BMP180;30134;47.866;-4.222;2023-05-19T13:18:12;102107.00;;;22.80
44429;BMP180;30134;47.866;-4.222;2023-05-19T13:20:40;102110.00;;;22.80
44429;BMP180;30134;47.866;-4.222;2023-05-19T13:23:09;102106.00;;;22.80
44429;BMP180;30134;47.866;-4.222;2023-05-19T13:25:35;102107.00;;;22.80
44429;BMP180;30134;47.866;-4.222;2023-05-19T13:28:02;102101.00;;;22.80
44429;BMP180;30134;47.866;-4.222;2023-05-19T13:30:34;102091.00;;;22.80
44429;BMP180;30134;47.866;-4.222;2023-05-19T13:33:01;102094.00;;;22.80
44429;BMP180;30134;47.866;-4.222;2023-05-19T13:35:27;102094.00;;;22.80
44429;BMP180;30134;47.866;-4.222;2023-05-19T13:37:56;102094.00;;;22.90
44429;BMP180;30134;47.866;-4.222;2023-05-19T13:40:22;102099.00;;;22.90
44429;BMP180;30134;47.866;-4.222;2023-05-19T13:42:48;102104.00;;;23.10
44429;BMP180;30134;47.866;-4.222;2023-05-19T13:45:14;102108.00;;;23.40
44429;BMP180;30134;47.866;-4.222;2023-05-19T13:47:40;102104.00;;;23.50
44429;BMP180;30134;47.866;-4.222;2023-05-19T13:50:07;102100.00;;;23.70
44429;BMP180;30134;47.866;-4.222;2023-05-19T13:52:33;102109.00;;;23.70
44429;BMP180;30134;47.866;-4.222;2023-05-19T13:54:59;102104.00;;;23.80
44429;BMP180;30134;47.866;-4.222;2023-05-19T13:57:26;102117.00;;;23.90
44429;BMP180;30134;47.866;-4.222;2023-05-19T13:59:53;102115.00;;;23.90
44429;BMP180;30134;47.866;-4.222;2023-05-19T14:02:20;102111.00;;;23.90
44429;BMP180;30134;47.866;-4.222;2023-05-19T14:04:46;102112.00;;;24.00
44429;BMP180;30134;47.866;-4.222;2023-05-19T14:07:13;102113.00;;;24.00
44429;BMP180;30134;47.866;-4.222;2023-05-19T14:09:39;102103.00;;;24.10
44429;BMP180;30134;47.866;-4.222;2023-05-19T14:12:05;102105.00;;;24.10
44429;BMP180;30134;47.866;-4.222;2023-05-19T14:14:31;102100.00;;;23.80